createdAt,value
2022-08-10T00:01:41.080Z,100351.09
2022-08-10T00:04:09.050Z,100344.13
2022-08-10T00:09:11.425Z,100349.72
2022-08-10T00:11:39.335Z,100341.44
2022-08-10T00:14:07.302Z,100350.56
2022-08-10T00:16:36.704Z,100344.13
2022-08-10T00:24:00.656Z,100344.84
2022-08-10T00:27:52.145Z,100341.38
2022-08-10T00:31:57.981Z,100344.81
2022-08-10T00:36:55.434Z,100337.25
2022-08-10T00:39:23.538Z,100343.91
2022-08-10T00:42:06.482Z,100345.25
2022-08-10T00:44:35.514Z,100334.53
2022-08-10T00:47:05.039Z,100336.09
2022-08-10T00:49:33.057Z,100339.56
2022-08-10T00:52:01.109Z,100341.19
2022-08-10T00:54:29.469Z,100337.41
2022-08-10T00:57:17.907Z,100335.53
2022-08-10T01:02:30.330Z,100338.91
2022-08-10T01:05:02.075Z,100331.66
2022-08-10T01:07:52.252Z,100335.41
2022-08-10T01:10:30.136Z,100337.53
2022-08-10T01:13:05.383Z,100332.97
2022-08-10T01:15:37.929Z,100337.94
2022-08-10T01:18:10.633Z,100345.09
2022-08-10T01:20:46.534Z,100332.00
2022-08-10T01:23:51.809Z,100332.84
2022-08-10T01:26:58.719Z,100331.22
2022-08-10T01:29:53.507Z,100328.81
2022-08-10T01:32:31.274Z,100332.25
2022-08-10T01:35:07.254Z,100336.25
2022-08-10T01:37:43.650Z,100333.75
2022-08-10T01:40:25.227Z,100338.81
2022-08-10T01:45:26.654Z,100339.22
2022-08-10T01:48:16.477Z,100328.78
2022-08-10T02:01:21.163Z,100329.13
2022-08-10T02:04:04.128Z,100334.53
2022-08-10T02:06:38.012Z,100333.38
2022-08-10T02:09:08.319Z,100339.63
2022-08-10T02:11:57.485Z,100335.59
2022-08-10T02:14:33.930Z,100341.19
2022-08-10T02:17:09.016Z,100337.97
2022-08-10T02:20:00.124Z,100340.41
2022-08-10T02:22:35.798Z,100346.13
2022-08-10T02:27:37.581Z,100348.72
2022-08-10T02:32:39.827Z,100342.81
2022-08-10T02:35:21.821Z,100344.41
2022-08-10T02:37:52.430Z,100347.34
2022-08-10T02:45:21.827Z,100345.59
2022-08-10T02:48:45.643Z,100346.81
2022-08-10T02:51:19.588Z,100350.47
2022-08-10T02:54:11.441Z,100355.25
2022-08-10T02:56:43.080Z,100350.09
2022-08-10T02:59:13.843Z,100357.56
2022-08-10T03:01:46.348Z,100361.94
2022-08-10T03:04:20.766Z,100362.00
2022-08-10T03:09:43.743Z,100354.69
2022-08-10T03:12:35.530Z,100360.19
2022-08-10T03:15:04.089Z,100354.47
2022-08-10T03:17:34.039Z,100368.13
2022-08-10T03:20:36.738Z,100359.31
2022-08-10T03:22:54.171Z,100359.97
2022-08-10T03:25:25.148Z,100359.97
2022-08-10T03:27:57.092Z,100363.53
2022-08-10T03:30:33.634Z,100354.97
2022-08-10T03:33:03.761Z,100358.94
2022-08-10T03:35:33.301Z,100353.28
2022-08-10T03:38:01.719Z,100358.22
2022-08-10T03:40:46.345Z,100359.50
2022-08-10T03:43:18.484Z,100370.72
2022-08-10T03:45:54.957Z,100361.59
2022-08-10T03:48:42.418Z,100365.63
2022-08-10T03:51:15.884Z,100361.75
2022-08-10T03:54:05.889Z,100360.31
2022-08-10T03:56:33.363Z,100359.75
2022-08-10T03:59:02.090Z,100360.63
2022-08-10T04:02:43.352Z,100352.47
2022-08-10T04:04:24.259Z,100356.19
2022-08-10T04:06:55.745Z,100360.94
2022-08-10T04:09:25.098Z,100357.16
2022-08-10T04:12:11.567Z,100366.19
2022-08-10T04:14:51.365Z,100368.78
2022-08-10T04:18:04.121Z,100369.09
2022-08-10T04:20:17.582Z,100368.28
2022-08-10T04:22:49.768Z,100370.06
2022-08-10T04:25:18.447Z,100368.28
2022-08-10T04:27:47.502Z,100371.81
2022-08-10T04:30:15.797Z,100369.22
2022-08-10T04:35:17.447Z,100367.16
2022-08-10T04:37:49.503Z,100372.13
2022-08-10T04:40:28.638Z,100367.88
2022-08-10T04:43:03.306Z,100381.59
2022-08-10T04:45:47.367Z,100377.66
2022-08-10T04:48:39.900Z,100379.25
2022-08-10T04:51:11.219Z,100377.31
2022-08-10T04:54:05.809Z,100376.09
2022-08-10T04:56:37.287Z,100376.91
2022-08-10T04:59:06.646Z,100382.53
2022-08-10T05:02:21.449Z,100383.13
2022-08-10T05:04:34.488Z,100379.72
2022-08-10T05:07:08.753Z,100379.97
2022-08-10T05:10:01.051Z,100380.06
2022-08-10T05:12:26.670Z,100389.56
2022-08-10T05:14:54.882Z,100384.81
2022-08-10T05:17:23.255Z,100383.03
2022-08-10T05:20:03.409Z,100384.97
2022-08-10T05:22:35.503Z,100390.06
2022-08-10T05:27:34.710Z,100391.06
2022-08-10T05:30:03.838Z,100391.84
2022-08-10T05:32:55.455Z,100396.19
2022-08-10T05:35:20.660Z,100387.44
2022-08-10T05:38:10.520Z,100395.31
2022-08-10T05:40:39.393Z,100394.09
2022-08-10T05:43:08.018Z,100399.25
2022-08-10T05:48:57.115Z,100392.91
2022-08-10T05:51:12.490Z,100385.38
2022-08-10T05:54:01.838Z,100394.78
2022-08-10T05:56:54.018Z,100392.50
2022-08-10T06:00:11.145Z,100389.16
2022-08-10T06:02:33.143Z,100393.81
2022-08-10T06:04:56.646Z,100392.91
2022-08-10T06:09:59.818Z,100395.00
2022-08-10T06:12:32.194Z,100390.41
2022-08-10T06:15:05.588Z,100393.31
2022-08-10T06:17:39.484Z,100396.84
2022-08-10T06:20:08.522Z,100385.66
2022-08-10T06:25:44.294Z,100382.25
2022-08-10T06:27:57.459Z,100387.75
2022-08-10T06:35:29.174Z,100394.94
2022-08-10T06:37:59.578Z,100394.50
2022-08-10T06:40:30.645Z,100397.50
2022-08-10T06:43:02.466Z,100391.13
2022-08-10T06:48:05.369Z,100391.41
2022-08-10T06:53:53.761Z,100387.88
2022-08-10T06:56:37.605Z,100383.59
2022-08-10T06:59:13.431Z,100380.59
2022-08-10T07:01:54.337Z,100380.00
2022-08-10T07:04:32.345Z,100378.66
2022-08-10T07:07:05.287Z,100381.50
2022-08-10T07:09:36.411Z,100373.88
2022-08-10T07:12:08.288Z,100373.44
2022-08-10T07:14:42.278Z,100388.56
2022-08-10T07:17:15.772Z,100382.84
2022-08-10T07:19:50.559Z,100373.59
2022-08-10T07:23:01.505Z,100382.69
2022-08-10T07:25:13.324Z,100372.13
2022-08-10T07:28:00.788Z,100377.03
2022-08-10T07:30:36.949Z,100374.91
2022-08-10T07:33:06.788Z,100368.50
2022-08-10T07:35:42.987Z,100377.81
2022-08-10T07:38:18.048Z,100382.28
2022-08-10T07:40:47.486Z,100384.63
2022-08-10T07:43:17.982Z,100380.63
2022-08-10T07:45:48.903Z,100383.06
2022-08-10T07:48:20.844Z,100382.44
2022-08-10T07:50:50.260Z,100382.06
2022-08-10T07:53:22.803Z,100384.25
2022-08-10T07:56:04.177Z,100370.69
2022-08-10T07:58:46.356Z,100379.00
2022-08-10T08:01:24.895Z,100381.31
2022-08-10T08:04:05.625Z,100382.22
2022-08-10T08:06:41.301Z,100372.72
2022-08-10T08:09:10.076Z,100381.38
2022-08-10T08:11:40.535Z,100382.16
2022-08-10T08:14:09.853Z,100378.06
2022-08-10T08:24:07.808Z,100380.16
2022-08-10T08:24:52.277Z,100379.66
2022-08-10T08:27:22.199Z,100383.09
2022-08-10T08:29:51.730Z,100377.16
2022-08-10T08:34:55.694Z,100393.94
2022-08-10T08:38:32.123Z,100374.91
2022-08-10T08:40:18.011Z,100387.16
2022-08-10T08:43:06.030Z,100381.69
2022-08-10T08:46:01.571Z,100383.16
2022-08-10T08:48:53.351Z,100375.38
2022-08-10T08:52:07.018Z,100364.75
2022-08-10T08:57:12.446Z,100359.41
2022-08-10T09:00:05.307Z,100363.34
2022-08-10T09:02:54.464Z,100364.38
2022-08-10T09:11:31.684Z,100354.81
2022-08-10T09:14:07.350Z,100347.66
2022-08-10T09:16:44.399Z,100346.03
2022-08-10T09:19:35.530Z,100346.38
2022-08-10T09:22:18.181Z,100340.59
2022-08-10T09:24:53.309Z,100341.78
2022-08-10T09:27:24.028Z,100340.44
2022-08-10T09:29:56.254Z,100346.38
2022-08-10T09:36:13.678Z,100351.50
2022-08-10T09:36:20.908Z,100340.84
2022-08-10T09:38:43.680Z,100340.50
2022-08-10T09:41:24.222Z,100348.88
2022-08-10T09:49:25.050Z,100339.34
2022-08-10T09:54:55.407Z,100329.66
2022-08-10T10:02:53.366Z,100331.69
2022-08-10T10:08:10.863Z,100324.69
2022-08-10T10:10:55.159Z,100319.66
2022-08-10T10:13:50.637Z,100314.81
2022-08-10T10:17:04.794Z,100314.84
2022-08-10T10:20:04.526Z,100300.88
2022-08-10T10:22:44.499Z,100306.50
2022-08-10T10:27:59.324Z,100293.34
2022-08-10T10:33:13.051Z,100293.34
2022-08-10T10:35:48.771Z,100297.22
2022-08-10T10:38:18.610Z,100294.75
2022-08-10T10:43:41.060Z,100287.88
2022-08-10T10:46:24.002Z,100289.31
2022-08-10T10:54:09.479Z,100282.38
2022-08-10T11:07:56.800Z,100264.75
2022-08-10T11:16:06.683Z,100252.88
2022-08-10T11:21:28.238Z,100259.13
2022-08-10T11:26:56.696Z,100244.38
2022-08-10T11:45:10.058Z,100230.09
2022-08-10T11:47:46.125Z,100225.38
2022-08-10T11:50:22.112Z,100226.34
2022-08-10T11:58:01.642Z,100232.50
2022-08-10T12:00:33.106Z,100231.66
2022-08-10T12:11:10.598Z,100220.97
2022-08-10T12:13:58.430Z,100220.53
2022-08-10T12:24:21.251Z,100217.63
2022-08-10T13:22:25.388Z,100173.94
2022-08-10T13:55:53.220Z,100135.91
2022-08-10T14:23:48.510Z,100104.09
2022-08-10T15:40:24.657Z,100053.66
2022-08-10T17:04:06.034Z,100007.13
2022-08-10T17:06:35.385Z,100003.88
2022-08-10T17:11:38.711Z,100005.78
2022-08-10T17:26:52.968Z,100002.25
2022-08-10T17:34:54.269Z,100004.56
2022-08-10T17:47:28.711Z,99997.56
2022-08-10T17:49:58.470Z,100001.91
2022-08-10T17:52:30.189Z,100003.34
2022-08-10T17:57:36.198Z,99999.31
2022-08-10T18:00:07.002Z,99998.50
2022-08-10T18:12:47.531Z,100002.19
2022-08-10T18:20:31.792Z,100012.97
2022-08-10T18:25:34.577Z,100010.19
2022-08-10T18:30:45.608Z,100006.25
2022-08-10T18:33:20.452Z,100007.22
2022-08-10T18:38:22.443Z,100027.47
2022-08-10T18:40:54.332Z,100024.59
2022-08-10T18:44:05.886Z,100028.59
2022-08-10T18:46:28.012Z,100036.53
2022-08-10T18:49:05.791Z,100039.53
2022-08-10T18:51:46.930Z,100044.16
2022-08-10T18:54:39.429Z,100037.31
2022-08-10T19:02:56.449Z,100049.44
2022-08-10T19:05:37.972Z,100045.91
2022-08-10T19:11:31.193Z,100049.50
2022-08-10T19:14:04.094Z,100048.16
2022-08-10T19:16:39.579Z,100043.66
2022-08-10T19:19:22.109Z,100044.31
2022-08-10T19:21:59.325Z,100048.13
2022-08-10T19:24:37.501Z,100048.06
2022-08-10T19:27:15.365Z,100046.09
2022-08-10T19:30:11.588Z,100052.41
2022-08-10T19:32:59.964Z,100045.81
2022-08-10T19:38:35.307Z,100057.31
2022-08-10T19:41:11.876Z,100062.13
2022-08-10T19:44:00.953Z,100068.13
2022-08-10T19:46:42.279Z,100062.16
2022-08-10T19:49:19.732Z,100060.25
2022-08-10T19:54:36.410Z,100064.59
2022-08-10T19:57:12.404Z,100072.59
2022-08-10T20:00:15.926Z,100062.00
2022-08-10T20:02:52.165Z,100065.59
2022-08-10T20:05:31.116Z,100065.09
2022-08-10T20:08:07.265Z,100066.59
2022-08-10T20:10:46.635Z,100068.44
2022-08-10T20:13:22.348Z,100079.50
2022-08-10T20:15:59.315Z,100075.81
2022-08-10T20:21:12.261Z,100077.84
2022-08-10T20:23:53.984Z,100080.13
2022-08-10T20:26:30.903Z,100071.44
2022-08-10T20:29:10.201Z,100073.78
2022-08-10T20:31:51.621Z,100071.72
2022-08-10T20:36:58.417Z,100074.50
2022-08-10T20:39:44.743Z,100075.22
2022-08-10T20:42:21.912Z,100081.69
2022-08-10T20:44:56.935Z,100082.16
2022-08-10T20:47:44.295Z,100084.13
2022-08-10T20:50:32.924Z,100080.75
2022-08-10T20:53:05.276Z,100088.91
2022-08-10T20:55:57.537Z,100086.66
2022-08-10T20:58:54.781Z,100088.47
2022-08-10T21:02:06.485Z,100091.75
2022-08-10T21:04:42.806Z,100100.28
2022-08-10T21:07:57.797Z,100082.81
2022-08-10T21:13:19.590Z,100092.47
2022-08-10T21:15:59.856Z,100093.66
2022-08-10T21:18:54.680Z,100097.44
2022-08-10T21:21:45.533Z,100095.19
2022-08-10T21:24:41.178Z,100096.28
2022-08-10T21:27:27.200Z,100089.38
2022-08-10T21:30:09.167Z,100102.34
2022-08-10T21:32:48.778Z,100095.94
2022-08-10T21:35:36.775Z,100094.16
2022-08-10T21:38:12.923Z,100094.78
2022-08-10T21:41:18.119Z,100101.56
2022-08-10T21:44:04.920Z,100097.63
2022-08-10T21:47:02.795Z,100093.97
2022-08-10T21:50:03.894Z,100098.03
2022-08-10T21:53:04.268Z,100085.16
2022-08-10T21:56:14.566Z,100093.81
2022-08-10T21:59:08.647Z,100082.59
2022-08-10T22:01:59.461Z,100082.69
2022-08-10T22:04:45.798Z,100080.84
2022-08-10T22:07:38.377Z,100081.78
2022-08-10T22:10:27.069Z,100078.00
2022-08-10T22:13:19.586Z,100079.00
2022-08-10T22:16:11.546Z,100086.81
2022-08-10T22:19:02.953Z,100081.22
2022-08-10T22:22:00.341Z,100091.88
2022-08-10T22:25:02.068Z,100089.56
2022-08-10T22:27:51.397Z,100092.00
2022-08-10T22:30:38.672Z,100091.44
2022-08-10T22:43:10.009Z,100089.50
2022-08-10T22:46:03.386Z,100089.50
2022-08-10T22:48:52.129Z,100090.03
2022-08-10T22:51:23.765Z,100094.09
2022-08-10T22:54:30.481Z,100096.28
2022-08-10T22:57:18.501Z,100101.41
2022-08-10T22:59:49.422Z,100107.31
2022-08-10T23:02:29.506Z,100104.91
2022-08-10T23:05:03.061Z,100100.66
2022-08-10T23:07:33.106Z,100104.97
2022-08-10T23:10:06.730Z,100108.44
2022-08-10T23:15:37.407Z,100103.94
2022-08-10T23:20:57.164Z,100117.03
2022-08-10T23:26:00.242Z,100102.06
2022-08-10T23:31:13.448Z,100096.69
2022-08-10T23:33:43.088Z,100103.69
2022-08-10T23:36:34.558Z,100098.84
2022-08-10T23:39:25.661Z,100103.38
2022-08-10T23:41:59.738Z,100104.19
2022-08-10T23:44:36.136Z,100100.44
2022-08-10T23:47:06.826Z,100100.72
2022-08-10T23:49:37.320Z,100094.84
2022-08-10T23:52:11.897Z,100091.63
2022-08-10T23:54:51.274Z,100095.38
2022-08-10T23:57:22.717Z,100090.56
2022-08-10T23:59:56.773Z,100105.00
